KSTK/STK METAR and TAF weather

Enter ICAO airport designator
Station Type Date Time Source
KSTK METAR 2022/11/30 16:55 UTC NOAA

KSTK 301655Z AUTO 00000KT 10SM CLR M08/M10 A3021 RMK AO2


Station Type Date Time Source
KSTK Decoded METAR 2022/11/30 16:55 UTC NOAA

Station name not available
Nov 30, 2022 - 11:55 AM EST / 2022.11.30 1655 UTC
Wind: Calm:0
Visibility: 10 mile(s):0
Sky conditions: clear
Temperature: 17 F (-8 C)
Dew Point: 14 F (-10 C)
Relative Humidity: 85%
Pressure (altimeter): 30.21 in. Hg (1023 hPa)
ob: KSTK 301655Z AUTO 00000KT 10SM CLR M08/M10 A3021 RMK AO2
cycle: 17

Station Type Date Time Source
KSTK TAF UTC NOAA

Error!

Example: see airport list